createdAt,value
2018-10-01T00:00:04.148Z,58.80
2018-10-01T00:02:32.911Z,59.10
2018-10-01T00:05:01.728Z,59.30
2018-10-01T00:07:30.528Z,59.30
2018-10-01T00:09:59.369Z,59.10
2018-10-01T00:12:28.172Z,59.10
2018-10-01T00:14:56.974Z,58.90
2018-10-01T00:17:25.722Z,59.30
2018-10-01T00:19:59.767Z,58.80
2018-10-01T00:22:33.733Z,59.20
2018-10-01T00:25:02.505Z,59.50
2018-10-01T00:27:31.383Z,59.50
2018-10-01T00:30:00.160Z,59.40
2018-10-01T00:32:28.926Z,59.40
2018-10-01T00:34:57.683Z,59.50
2018-10-01T00:37:26.483Z,59.30
2018-10-01T00:39:55.285Z,59.20
2018-10-01T00:42:24.014Z,59.50
2018-10-01T00:44:52.781Z,59.90
2018-10-01T00:47:21.537Z,60.50
2018-10-01T00:49:50.308Z,61.00
2018-10-01T00:52:19.107Z,60.90
2018-10-01T00:54:47.869Z,61.20
2018-10-01T00:57:16.593Z,60.70
2018-10-01T00:59:45.376Z,61.20
2018-10-01T01:02:14.185Z,60.90
2018-10-01T01:04:43.068Z,60.90
2018-10-01T01:07:11.865Z,60.90
2018-10-01T01:09:40.624Z,60.80
2018-10-01T01:12:09.435Z,60.80
2018-10-01T01:14:38.710Z,61.10
2018-10-01T01:17:07.699Z,61.40
2018-10-01T01:19:36.535Z,60.90
2018-10-01T01:22:05.345Z,60.70
2018-10-01T01:24:34.084Z,60.90
2018-10-01T01:27:02.893Z,61.00
2018-10-01T01:29:31.712Z,60.90
2018-10-01T01:32:00.512Z,61.10
2018-10-01T01:34:29.309Z,61.50
2018-10-01T01:36:58.464Z,61.60
2018-10-01T01:39:27.251Z,62.40
2018-10-01T01:41:56.157Z,62.10
2018-10-01T01:44:24.998Z,62.30
2018-10-01T01:46:53.785Z,62.30
2018-10-01T01:49:22.555Z,62.30
2018-10-01T01:51:51.384Z,63.00
2018-10-01T01:54:20.193Z,63.00
2018-10-01T01:56:48.936Z,62.90
2018-10-01T01:59:17.729Z,62.80
2018-10-01T02:01:46.561Z,62.20
2018-10-01T02:04:15.316Z,61.80
2018-10-01T02:06:44.131Z,62.90
2018-10-01T02:09:12.925Z,63.70
2018-10-01T02:11:41.678Z,62.70
2018-10-01T02:14:10.883Z,63.20
2018-10-01T02:16:39.685Z,62.70
2018-10-01T02:19:08.460Z,63.40
2018-10-01T02:21:37.231Z,62.40
2018-10-01T02:24:05.976Z,62.80
2018-10-01T02:26:34.748Z,62.90
2018-10-01T02:29:03.557Z,64.50
2018-10-01T02:31:32.332Z,64.60
2018-10-01T02:34:01.129Z,64.00
2018-10-01T02:36:29.892Z,64.10
2018-10-01T02:38:58.702Z,64.30
2018-10-01T02:41:27.569Z,64.50
2018-10-01T02:43:56.339Z,63.80
2018-10-01T02:46:25.201Z,64.30
2018-10-01T02:48:53.936Z,64.20
2018-10-01T02:51:22.953Z,63.60
2018-10-01T02:54:59.021Z,64.60
2018-10-01T02:57:27.806Z,64.60
2018-10-01T02:59:56.614Z,64.90
2018-10-01T03:02:25.424Z,65.60
2018-10-01T03:04:54.212Z,65.30
2018-10-01T03:07:22.984Z,65.30
2018-10-01T03:09:51.738Z,65.50
2018-10-01T03:12:20.567Z,64.60
2018-10-01T03:14:49.357Z,65.10
2018-10-01T03:17:18.167Z,65.50
2018-10-01T03:19:46.928Z,65.40
2018-10-01T03:22:15.713Z,65.10
2018-10-01T03:24:44.557Z,65.00
2018-10-01T03:27:13.367Z,65.00
2018-10-01T03:29:42.125Z,65.20
2018-10-01T03:32:10.862Z,64.00
2018-10-01T03:34:39.642Z,65.30
2018-10-01T03:37:08.473Z,65.40
2018-10-01T03:39:37.385Z,66.20
2018-10-01T03:42:06.295Z,65.30
2018-10-01T03:44:35.089Z,64.60
2018-10-01T03:47:03.966Z,65.50
2018-10-01T03:49:32.737Z,65.10
2018-10-01T03:52:01.632Z,66.00
2018-10-01T03:54:30.368Z,67.70
2018-10-01T03:56:59.677Z,68.10
2018-10-01T03:59:28.476Z,68.20
2018-10-01T04:01:58.412Z,67.10
2018-10-01T04:04:27.245Z,67.30
2018-10-01T04:06:56.040Z,67.10
2018-10-01T04:09:24.840Z,67.30
2018-10-01T04:11:53.584Z,67.20
2018-10-01T04:14:22.375Z,66.70
2018-10-01T04:16:51.160Z,66.40
2018-10-01T04:19:19.955Z,66.70
2018-10-01T04:21:48.752Z,67.40
2018-10-01T04:24:17.516Z,68.30
2018-10-01T04:26:46.241Z,68.90
2018-10-01T04:29:15.512Z,68.40
2018-10-01T04:31:45.113Z,68.80
2018-10-01T04:34:14.092Z,68.00
2018-10-01T04:36:42.816Z,69.30
2018-10-01T04:39:13.412Z,68.60
2018-10-01T04:41:42.832Z,68.70
2018-10-01T04:44:12.061Z,67.60
2018-10-01T04:46:41.183Z,68.50
2018-10-01T04:49:10.979Z,68.30
2018-10-01T04:51:40.944Z,68.30
2018-10-01T04:54:09.764Z,68.90
2018-10-01T04:56:38.613Z,69.30
2018-10-01T04:59:08.069Z,69.40
2018-10-01T05:01:36.829Z,69.10
2018-10-01T05:04:05.620Z,70.50
2018-10-01T05:06:34.436Z,69.40
2018-10-01T05:09:03.312Z,69.70
2018-10-01T05:11:32.072Z,71.70
2018-10-01T05:14:00.847Z,70.90
2018-10-01T05:16:29.619Z,71.80
2018-10-01T05:18:58.451Z,72.50
2018-10-01T05:21:27.229Z,72.70
2018-10-01T05:23:55.988Z,73.40
2018-10-01T05:26:24.831Z,73.60
2018-10-01T05:28:53.580Z,74.20
2018-10-01T05:31:22.377Z,75.70
2018-10-01T05:33:51.151Z,74.90
2018-10-01T05:36:20.040Z,74.20
2018-10-01T05:38:48.809Z,73.00
2018-10-01T05:41:17.641Z,73.00
2018-10-01T05:43:46.437Z,73.20
2018-10-01T05:46:15.213Z,74.20
2018-10-01T05:48:44.335Z,75.10
2018-10-01T05:51:13.115Z,75.90
2018-10-01T05:53:41.895Z,77.70
2018-10-01T05:56:10.717Z,78.70
2018-10-01T05:58:39.538Z,80.60
2018-10-01T06:01:08.385Z,80.90
2018-10-01T06:03:37.173Z,79.10
2018-10-01T06:06:05.960Z,80.50
2018-10-01T06:08:34.796Z,79.10
2018-10-01T06:11:03.828Z,78.80
2018-10-01T06:13:32.605Z,80.10
2018-10-01T06:16:01.376Z,79.30
2018-10-01T06:18:30.164Z,80.30
2018-10-01T06:20:58.967Z,80.50
2018-10-01T06:23:28.365Z,80.60
2018-10-01T06:25:57.185Z,80.70
2018-10-01T06:28:25.960Z,79.80
2018-10-01T06:30:54.794Z,80.00
2018-10-01T06:33:23.617Z,81.80
2018-10-01T06:35:52.414Z,80.90
2018-10-01T06:38:21.217Z,80.90
2018-10-01T06:40:50.008Z,80.80
2018-10-01T06:43:19.088Z,81.90
2018-10-01T06:45:47.903Z,81.80
2018-10-01T06:48:16.656Z,80.80
2018-10-01T06:50:45.448Z,80.30
2018-10-01T06:53:14.500Z,84.20
2018-10-01T06:55:43.321Z,84.00
2018-10-01T06:58:12.113Z,82.80
2018-10-01T07:00:40.936Z,83.00
2018-10-01T07:03:09.782Z,83.50
2018-10-01T07:05:38.688Z,83.30
2018-10-01T07:08:07.460Z,84.50
2018-10-01T07:10:36.307Z,84.10
2018-10-01T07:13:05.088Z,83.90
2018-10-01T07:15:33.901Z,82.90
2018-10-01T07:18:02.658Z,84.70
2018-10-01T07:20:31.709Z,83.70
2018-10-01T07:23:00.683Z,85.30
2018-10-01T07:25:29.439Z,84.80
2018-10-01T07:27:58.263Z,83.50
2018-10-01T07:30:27.043Z,82.40
2018-10-01T07:32:55.828Z,82.70
2018-10-01T07:35:24.694Z,84.00
2018-10-01T07:37:53.490Z,83.40
2018-10-01T07:40:22.320Z,83.10
2018-10-01T07:42:51.137Z,82.70
2018-10-01T07:45:20.088Z,83.40
2018-10-01T07:47:48.883Z,84.00
2018-10-01T07:50:17.717Z,84.30
2018-10-01T07:52:46.523Z,83.00
2018-10-01T07:55:15.351Z,83.70
2018-10-01T07:57:44.101Z,84.10
2018-10-01T08:00:13.019Z,84.00
2018-10-01T08:02:41.800Z,84.20
2018-10-01T08:05:10.604Z,83.90
2018-10-01T08:07:39.365Z,83.30
2018-10-01T08:10:08.453Z,83.10
2018-10-01T08:12:37.260Z,83.80
2018-10-01T08:15:06.145Z,83.50
2018-10-01T08:17:34.997Z,83.40
2018-10-01T08:20:03.950Z,83.70
2018-10-01T08:22:32.745Z,84.60
2018-10-01T08:25:01.586Z,84.30
2018-10-01T08:27:30.381Z,84.00
2018-10-01T08:29:59.323Z,84.60
2018-10-01T08:32:28.094Z,84.80
2018-10-01T08:34:56.908Z,85.40
2018-10-01T08:37:25.704Z,86.70
2018-10-01T08:39:54.475Z,86.50
2018-10-01T08:42:23.307Z,86.90
2018-10-01T08:44:52.079Z,87.30
2018-10-01T08:47:21.050Z,88.50
2018-10-01T08:50:25.508Z,87.80
2018-10-01T08:53:05.151Z,88.40
2018-10-01T08:55:34.111Z,88.10
2018-10-01T08:58:02.895Z,90.00
2018-10-01T09:00:31.784Z,90.40
2018-10-01T09:03:00.571Z,90.00
2018-10-01T09:05:29.424Z,90.50
2018-10-01T09:07:58.196Z,89.80
2018-10-01T09:10:26.991Z,89.20
2018-10-01T09:12:55.812Z,90.70
2018-10-01T09:15:24.627Z,90.00
2018-10-01T09:17:53.399Z,88.70
2018-10-01T09:20:22.233Z,89.10
2018-10-01T09:22:51.006Z,88.30
2018-10-01T09:25:19.836Z,89.20
2018-10-01T09:27:48.609Z,87.30
2018-10-01T09:30:17.471Z,86.40
2018-10-01T09:32:46.331Z,87.50
2018-10-01T09:35:15.312Z,86.90
2018-10-01T09:37:44.052Z,88.00
2018-10-01T09:40:12.967Z,85.70
2018-10-01T09:42:41.827Z,85.50
2018-10-01T09:45:10.656Z,84.30
2018-10-01T09:47:39.646Z,85.30
2018-10-01T09:50:08.564Z,85.30
2018-10-01T09:52:37.543Z,83.20
2018-10-01T09:55:06.840Z,83.40
2018-10-01T09:57:35.621Z,82.90
2018-10-01T10:00:04.528Z,81.60
2018-10-01T10:02:33.646Z,83.00
2018-10-01T10:05:02.442Z,82.90
2018-10-01T10:07:31.300Z,84.20
2018-10-01T10:10:00.429Z,83.00
2018-10-01T10:12:29.255Z,82.90
2018-10-01T10:14:58.089Z,82.70
2018-10-01T10:17:26.946Z,81.30
2018-10-01T10:19:55.803Z,79.50
2018-10-01T10:22:24.841Z,79.40
2018-10-01T10:24:53.623Z,78.80
2018-10-01T10:27:22.427Z,77.80
2018-10-01T10:29:51.319Z,77.60
2018-10-01T10:32:20.199Z,78.50
2018-10-01T10:34:49.030Z,77.80
2018-10-01T10:37:18.544Z,76.30
2018-10-01T10:39:47.316Z,78.00
2018-10-01T10:42:16.106Z,78.00
2018-10-01T10:44:44.915Z,77.80
2018-10-01T10:47:13.682Z,76.30
2018-10-01T10:49:42.809Z,75.40
2018-10-01T10:52:11.925Z,74.90
2018-10-01T10:54:40.707Z,74.40
2018-10-01T10:57:09.833Z,74.10
2018-10-01T10:59:38.636Z,74.00
2018-10-01T11:02:07.532Z,73.60
2018-10-01T11:04:36.320Z,73.30
2018-10-01T11:07:05.148Z,73.60
2018-10-01T11:09:34.152Z,73.20
2018-10-01T11:12:02.946Z,72.60
2018-10-01T11:14:31.830Z,71.60
2018-10-01T11:17:00.921Z,70.90
2018-10-01T11:19:29.755Z,70.80
2018-10-01T11:21:58.648Z,70.50
2018-10-01T11:24:27.423Z,70.40
2018-10-01T11:26:56.260Z,70.70
2018-10-01T11:29:25.034Z,71.10
2018-10-01T11:31:53.973Z,71.00
2018-10-01T11:34:22.751Z,71.30
2018-10-01T11:36:51.473Z,71.50
2018-10-01T11:39:20.402Z,70.90
2018-10-01T11:41:49.165Z,70.80
2018-10-01T11:44:17.991Z,70.50
2018-10-01T11:46:46.812Z,69.30
2018-10-01T11:49:15.978Z,69.30
2018-10-01T11:51:44.877Z,68.90
2018-10-01T11:54:13.772Z,69.50
2018-10-01T11:56:42.597Z,70.20
2018-10-01T11:59:11.808Z,70.60
2018-10-01T12:01:40.590Z,70.40
2018-10-01T12:04:09.494Z,69.50
2018-10-01T12:06:38.250Z,69.50
2018-10-01T12:09:09.753Z,70.10
2018-10-01T12:11:38.650Z,69.10
2018-10-01T12:14:07.909Z,69.20
2018-10-01T12:16:36.803Z,68.80
2018-10-01T12:19:05.791Z,68.80
2018-10-01T12:21:34.997Z,69.70
2018-10-01T12:24:03.948Z,70.30
2018-10-01T12:26:32.778Z,69.50
2018-10-01T12:29:01.636Z,69.30
2018-10-01T12:31:30.896Z,68.90
2018-10-01T12:33:59.696Z,68.50
2018-10-01T12:36:28.488Z,67.80
2018-10-01T12:38:57.338Z,68.40
2018-10-01T12:41:26.160Z,67.80
2018-10-01T12:43:54.965Z,67.30
2018-10-01T12:46:23.836Z,67.20
2018-10-01T12:48:52.644Z,67.40
2018-10-01T12:51:21.542Z,67.30
2018-10-01T12:53:50.423Z,67.20
2018-10-01T12:56:19.275Z,67.30
2018-10-01T12:58:48.155Z,67.50
2018-10-01T13:01:17.394Z,67.10
2018-10-01T13:03:46.390Z,67.20
2018-10-01T13:06:15.257Z,67.20
2018-10-01T13:08:43.960Z,68.10
2018-10-01T13:11:12.956Z,68.60
2018-10-01T13:13:41.792Z,68.00
2018-10-01T13:16:10.637Z,67.90
2018-10-01T13:18:39.812Z,67.70
2018-10-01T13:21:08.885Z,67.80
2018-10-01T13:23:37.714Z,68.00
2018-10-01T13:26:06.555Z,69.10
2018-10-01T13:28:35.445Z,68.40
2018-10-01T13:31:04.568Z,68.30
2018-10-01T13:33:33.424Z,69.00
2018-10-01T13:36:03.384Z,68.90
2018-10-01T13:38:32.232Z,69.20
2018-10-01T13:41:01.186Z,69.50
2018-10-01T13:43:30.006Z,69.80
2018-10-01T13:45:59.156Z,69.70
2018-10-01T13:48:28.089Z,70.10
2018-10-01T13:50:56.884Z,70.10
2018-10-01T13:53:25.666Z,69.70
2018-10-01T13:55:54.507Z,70.30
2018-10-01T13:58:23.608Z,69.80
2018-10-01T14:00:52.479Z,69.50
2018-10-01T14:03:21.261Z,69.00
2018-10-01T14:05:50.091Z,68.70
2018-10-01T14:08:18.910Z,68.50
2018-10-01T14:10:47.757Z,68.30
2018-10-01T14:13:16.693Z,68.20
2018-10-01T14:15:45.549Z,68.00
2018-10-01T14:18:14.361Z,68.20
2018-10-01T14:20:43.293Z,68.30
2018-10-01T14:23:12.132Z,68.30
2018-10-01T14:25:41.031Z,69.00
2018-10-01T14:28:09.849Z,68.60
2018-10-01T14:30:38.808Z,68.40
2018-10-01T14:33:07.644Z,68.70
2018-10-01T14:35:36.512Z,68.40
2018-10-01T14:38:05.368Z,68.40
2018-10-01T14:40:34.265Z,68.80
2018-10-01T14:43:03.140Z,68.70
2018-10-01T14:45:32.008Z,68.90
2018-10-01T14:48:00.920Z,69.40
2018-10-01T14:50:29.918Z,70.10
2018-10-01T14:52:58.764Z,70.20
2018-10-01T14:55:27.636Z,70.00
2018-10-01T14:57:56.467Z,72.10
2018-10-01T15:00:25.471Z,73.50
2018-10-01T15:02:54.251Z,73.20
2018-10-01T15:05:23.061Z,73.60
2018-10-01T15:07:51.944Z,74.40
2018-10-01T15:10:20.855Z,74.00
2018-10-01T15:12:49.707Z,75.90
2018-10-01T15:15:18.544Z,78.90
2018-10-01T15:17:47.442Z,79.40
2018-10-01T15:20:16.577Z,78.40
2018-10-01T15:22:45.416Z,80.80
2018-10-01T15:25:14.268Z,79.60
2018-10-01T15:27:43.071Z,79.70
2018-10-01T15:30:11.961Z,81.60
2018-10-01T15:32:40.755Z,82.70
2018-10-01T15:35:09.747Z,82.30
2018-10-01T15:37:38.607Z,84.10
2018-10-01T15:40:07.693Z,85.50
2018-10-01T15:42:36.672Z,87.90
2018-10-01T15:45:06.028Z,87.90
2018-10-01T15:47:34.970Z,88.10
2018-10-01T15:50:03.931Z,89.00
2018-10-01T15:52:32.782Z,89.30
2018-10-01T15:55:01.681Z,89.10
2018-10-01T15:57:30.486Z,90.10
2018-10-01T15:59:59.668Z,90.30
2018-10-01T16:02:28.802Z,89.90
2018-10-01T16:04:57.635Z,90.20
2018-10-01T16:07:26.434Z,89.90
2018-10-01T16:09:55.357Z,89.10
2018-10-01T16:12:24.172Z,89.90
2018-10-01T16:14:53.041Z,88.00
2018-10-01T16:17:21.852Z,90.90
2018-10-01T16:19:50.703Z,91.40
2018-10-01T16:22:19.592Z,91.40
2018-10-01T16:24:48.440Z,92.10
2018-10-01T16:27:17.287Z,91.10
2018-10-01T16:29:46.191Z,91.70
2018-10-01T16:32:15.010Z,91.50
2018-10-01T16:34:43.834Z,91.00
2018-10-01T16:37:12.731Z,90.70
2018-10-01T16:39:42.461Z,90.80
2018-10-01T16:42:11.355Z,91.00
2018-10-01T16:44:40.156Z,91.30
2018-10-01T16:47:09.014Z,91.10
2018-10-01T16:49:37.844Z,91.60
2018-10-01T16:52:06.723Z,91.90
2018-10-01T16:54:35.489Z,91.90
2018-10-01T16:57:04.385Z,91.60
2018-10-01T16:59:33.259Z,91.50
2018-10-01T17:02:02.069Z,91.70
2018-10-01T17:04:30.911Z,91.50
2018-10-01T17:06:59.688Z,90.90
2018-10-01T17:09:28.549Z,90.90
2018-10-01T17:11:57.369Z,91.30
2018-10-01T17:14:26.352Z,90.90
2018-10-01T17:16:55.147Z,91.00
2018-10-01T17:19:24.029Z,90.70
2018-10-01T17:21:52.888Z,90.80
2018-10-01T17:24:21.756Z,91.40
2018-10-01T17:26:50.606Z,91.30
2018-10-01T17:29:19.450Z,90.70
2018-10-01T17:31:48.350Z,91.40
2018-10-01T17:34:17.220Z,92.40
2018-10-01T17:36:47.116Z,91.80
2018-10-01T17:39:15.987Z,92.10
2018-10-01T17:41:46.856Z,91.80
2018-10-01T17:44:15.748Z,91.70
2018-10-01T17:46:45.361Z,91.40
2018-10-01T17:49:14.160Z,91.80
2018-10-01T17:51:43.029Z,91.90
2018-10-01T17:54:12.325Z,91.90
2018-10-01T17:56:41.123Z,92.30
2018-10-01T17:59:09.985Z,92.20
2018-10-01T18:01:38.822Z,91.60
2018-10-01T18:04:07.688Z,91.50
2018-10-01T18:06:36.505Z,91.40
2018-10-01T18:09:08.138Z,90.90
2018-10-01T18:11:37.045Z,90.80
2018-10-01T18:14:06.547Z,90.90
2018-10-01T18:16:36.648Z,90.80
2018-10-01T18:19:05.666Z,91.30
2018-10-01T18:21:34.528Z,91.20
2018-10-01T18:24:03.433Z,91.20
2018-10-01T18:26:32.339Z,91.10
2018-10-01T18:29:01.208Z,90.90
2018-10-01T18:31:30.000Z,90.30
2018-10-01T18:33:58.875Z,90.20
2018-10-01T18:36:27.714Z,89.80
2018-10-01T18:38:56.552Z,90.00
2018-10-01T18:41:25.367Z,90.20
2018-10-01T18:43:54.903Z,90.50
2018-10-01T18:46:23.808Z,90.50
2018-10-01T18:48:52.663Z,90.60
2018-10-01T18:51:21.490Z,90.50
2018-10-01T18:53:50.423Z,91.00
2018-10-01T18:56:19.234Z,90.60
2018-10-01T18:58:48.089Z,90.70
2018-10-01T19:01:16.929Z,90.60
2018-10-01T19:03:45.777Z,89.70
2018-10-01T19:06:14.660Z,90.20
2018-10-01T19:08:43.530Z,90.40
2018-10-01T19:11:12.437Z,90.50
2018-10-01T19:13:41.279Z,91.10
2018-10-01T19:16:10.093Z,91.50
2018-10-01T19:18:39.192Z,91.40
2018-10-01T19:21:08.171Z,90.60
2018-10-01T19:23:37.342Z,90.30
2018-10-01T19:26:06.275Z,90.40
2018-10-01T19:28:35.092Z,90.70
2018-10-01T19:31:03.957Z,90.80
2018-10-01T19:33:32.784Z,90.70
2018-10-01T19:36:01.635Z,90.60
2018-10-01T19:38:30.520Z,90.40
2018-10-01T19:40:59.357Z,90.20
2018-10-01T19:43:28.254Z,89.30
2018-10-01T19:45:59.245Z,88.70
2018-10-01T19:48:28.155Z,88.10
2018-10-01T19:50:57.029Z,88.90
2018-10-01T19:53:25.860Z,90.20
2018-10-01T19:55:54.658Z,90.30
2018-10-01T19:58:23.504Z,90.60
2018-10-01T20:00:52.415Z,90.10
2018-10-01T20:03:21.270Z,90.30
2018-10-01T20:05:50.089Z,90.30
2018-10-01T20:08:18.920Z,90.00
2018-10-01T20:10:47.814Z,90.10
2018-10-01T20:13:16.628Z,90.10
2018-10-01T20:15:45.499Z,90.00
2018-10-01T20:18:14.358Z,89.30
2018-10-01T20:20:43.175Z,90.10
2018-10-01T20:23:12.023Z,89.90
2018-10-01T20:25:41.041Z,88.80
2018-10-01T20:28:09.955Z,88.70
2018-10-01T20:30:38.717Z,88.70
2018-10-01T20:33:07.589Z,88.10
2018-10-01T20:35:36.560Z,87.90
2018-10-01T20:38:05.308Z,89.40
2018-10-01T20:40:34.177Z,90.40
2018-10-01T20:43:02.960Z,90.20
2018-10-01T20:45:31.911Z,89.10
2018-10-01T20:48:00.940Z,89.40
2018-10-01T20:50:29.934Z,90.00
2018-10-01T20:52:59.710Z,90.50
2018-10-01T20:55:28.389Z,90.20
2018-10-01T20:57:57.237Z,90.10
2018-10-01T21:00:26.108Z,89.20
2018-10-01T21:04:18.149Z,88.60
2018-10-01T21:06:46.958Z,88.40
2018-10-01T21:09:15.778Z,88.50
2018-10-01T21:11:44.564Z,88.20
2018-10-01T21:14:13.379Z,88.20
2018-10-01T21:16:42.175Z,87.40
2018-10-01T21:19:11.146Z,86.30
2018-10-01T21:21:39.952Z,87.60
2018-10-01T21:24:08.740Z,87.90
2018-10-01T21:26:37.584Z,88.40
2018-10-01T21:29:06.437Z,89.80
2018-10-01T21:31:35.230Z,89.60
2018-10-01T21:34:04.108Z,89.20
2018-10-01T21:36:32.845Z,90.10
2018-10-01T21:39:01.632Z,89.30
2018-10-01T21:41:30.504Z,88.80
2018-10-01T21:43:59.305Z,89.00
2018-10-01T21:46:28.371Z,88.60
2018-10-01T21:48:57.192Z,87.80
2018-10-01T21:51:26.011Z,88.00
2018-10-01T21:53:54.840Z,87.90
2018-10-01T21:56:23.668Z,89.20
2018-10-01T21:58:52.460Z,89.80
2018-10-01T22:01:26.560Z,89.20
2018-10-01T22:03:55.352Z,88.80
2018-10-01T22:06:24.120Z,90.00
2018-10-01T22:08:52.901Z,89.30
2018-10-01T22:11:21.762Z,90.10
2018-10-01T22:13:50.664Z,89.20
2018-10-01T22:16:19.482Z,90.20
2018-10-01T22:18:48.240Z,90.70
2018-10-01T22:21:17.021Z,90.30
2018-10-01T22:23:45.856Z,90.60
2018-10-01T22:26:14.656Z,90.80
2018-10-01T22:28:43.465Z,90.60
2018-10-01T22:31:12.219Z,91.30
2018-10-01T22:33:40.977Z,91.50
2018-10-01T22:36:10.076Z,91.10
2018-10-01T22:38:38.870Z,90.60
2018-10-01T22:41:07.702Z,90.70
2018-10-01T22:43:36.500Z,90.70
2018-10-01T22:46:05.608Z,90.60
2018-10-01T22:48:34.443Z,91.10
2018-10-01T22:51:03.281Z,91.00
2018-10-01T22:53:32.066Z,90.80
2018-10-01T22:56:00.852Z,91.50
2018-10-01T22:58:29.664Z,91.60
2018-10-01T23:00:58.545Z,91.60
2018-10-01T23:03:27.365Z,91.10
2018-10-01T23:05:56.146Z,91.90
2018-10-01T23:08:24.924Z,91.10
2018-10-01T23:10:53.720Z,91.50
2018-10-01T23:13:22.511Z,91.40
2018-10-01T23:15:51.328Z,91.30
2018-10-01T23:18:20.174Z,91.00
2018-10-01T23:20:48.984Z,90.70
2018-10-01T23:23:17.864Z,90.80
2018-10-01T23:25:46.689Z,91.10
2018-10-01T23:28:15.462Z,91.80
2018-10-01T23:30:44.224Z,92.20
2018-10-01T23:33:12.995Z,92.90
2018-10-01T23:35:41.756Z,93.10
2018-10-01T23:38:10.697Z,92.70
2018-10-01T23:40:39.465Z,92.40
2018-10-01T23:43:08.247Z,92.80
2018-10-01T23:45:37.055Z,92.30
2018-10-01T23:48:06.091Z,92.70
2018-10-01T23:50:34.920Z,93.00
2018-10-01T23:53:04.203Z,93.50
2018-10-01T23:55:33.073Z,93.00
2018-10-01T23:58:01.865Z,93.00
